Kansas, Illinois
Current Conditions -  °F | °C
As of 9:35 PM on Friday 24 Oct 2014 (Local Time) from KPRG Reporting Station
Haze Haze  
Wind Chill:   Ceiling: Unl
Heat Index:   Visibility: 5mi
Dew Point:   Wind: 3mph
Humidity: 97%   Direction: 190°S
Pressure: 30.02"   Gusts: NA
Location:  39.55°N, 87.94°W
Report Text: KPRG 250235Z AUTO 19003KT 5SM BR CLR 09/09 A3002 RMK AO2 T00900086
Loading
Personal Weather Stations






























Interactive Weather Map
Tropical Storm Tracking
New forecast layout! Learn more

10-Day Weather Forecast

Advertisements
Track Severe Weather on mobile